Scott, Louisiana
Current Conditions -  °F | °C
As of 5:53 PM on Monday 20 Oct 2014 (Local Time) from KLFT Reporting Station
Clear Clear  
Wind Chill: 75°   Ceiling: Unl
Heat Index: 75°   Visibility: 10mi
Dew Point: 54°   Wind: 8mph
Humidity: 48%   Direction: 20°NNE
Pressure: 30"   Gusts: NA
Location:  30.24°N, 92.09°W
Report Text: KLFT 202253Z 02007KT 10SM CLR 24/12 A3000 RMK AO2 SLP159 T02390122
Loading
Personal Weather Stations






























Interactive Weather Map
Tropical Storm Tracking
New forecast layout! Learn more

10-Day Weather Forecast

Advertisements
Track Severe Weather on mobile